Time;durP1;ratioP1;P1;durP2;ratioP2;P2;SDS_P1;SDS_P2;PMS_P1;PMS_P2;Temp;Humidity;BMP_temperature;BMP_pressure;BME280_temperature;BME280_humidity;BME280_pressure;Samples;Min_cycle;Max_cycle;Signal;HPM_P1;HPM_P2
2021/05/16 00:01:26;;;;;;;12.43;8.80;;;9.60;90.50;;;;;;4991787;28;20042;-65
2021/05/16 00:03:51;;;;;;;15.65;9.45;;;9.50;90.60;;;;;;4992637;28;20034;-65
2021/05/16 00:06:17;;;;;;;13.38;8.70;;;9.50;90.60;;;;;;4991912;28;20483;-65
2021/05/16 00:08:44;;;;;;;12.52;9.18;;;9.40;90.60;;;;;;4992401;28;20045;-65
2021/05/16 00:11:10;;;;;;;13.73;10.30;;;9.30;90.70;;;;;;4993452;28;20038;-65
2021/05/16 00:13:35;;;;;;;14.00;9.65;;;9.30;90.80;;;;;;4988788;28;20044;-65
2021/05/16 00:16:01;;;;;;;13.32;10.02;;;9.30;90.80;;;;;;4991189;28;20088;-66
2021/05/16 00:18:27;;;;;;;13.70;9.32;;;9.30;90.90;;;;;;4991468;28;20035;-65
2021/05/16 00:20:53;;;;;;;12.50;8.88;;;9.30;90.90;;;;;;4991726;28;20034;-65
2021/05/16 00:23:19;;;;;;;14.10;9.68;;;9.30;90.90;;;;;;4991860;28;20502;-65
2021/05/16 00:25:45;;;;;;;16.45;10.45;;;9.20;91.00;;;;;;4992561;28;20043;-65
2021/05/16 00:28:11;;;;;;;12.55;9.60;;;9.20;91.00;;;;;;5007223;28;20046;-65
2021/05/16 00:30:38;;;;;;;15.52;10.02;;;9.20;91.10;;;;;;4991787;28;20027;-65
2021/05/16 00:33:04;;;;;;;14.53;10.27;;;9.30;91.20;;;;;;4992029;28;20062;-65
2021/05/16 00:35:32;;;;;;;12.77;9.07;;;9.30;91.20;;;;;;4992910;28;20039;-65
2021/05/16 00:37:59;;;;;;;14.87;9.80;;;9.30;91.20;;;;;;4987173;28;20464;-65
2021/05/16 00:40:25;;;;;;;13.60;9.32;;;9.30;91.20;;;;;;4973023;28;20043;-66
2021/05/16 00:42:51;;;;;;;13.93;9.45;;;9.40;91.30;;;;;;4972539;28;20109;-66
2021/05/16 00:45:22;;;;;;;12.97;9.53;;;9.40;91.20;;;;;;4973173;28;20047;-65
2021/05/16 00:47:57;;;;;;;13.13;9.55;;;9.40;91.20;;;;;;4985028;28;20082;-66
2021/05/16 00:50:29;;;;;;;11.95;8.50;;;9.40;91.20;;;;;;4992719;28;20178;-67
2021/05/16 00:52:55;;;;;;;12.75;9.10;;;9.50;91.30;;;;;;4990134;28;20038;-66
2021/05/16 00:55:23;;;;;;;12.43;9.45;;;9.50;91.30;;;;;;4991172;28;20035;-66
2021/05/16 00:57:50;;;;;;;13.37;9.20;;;9.50;91.30;;;;;;4990990;28;20050;-66
2021/05/16 01:00:21;;;;;;;11.85;8.10;;;9.50;91.30;;;;;;5007652;28;20042;-66
2021/05/16 01:02:48;;;;;;;10.47;7.83;;;9.50;91.30;;;;;;4991425;28;20046;-66
2021/05/16 01:05:17;;;;;;;11.30;8.70;;;9.50;91.30;;;;;;4974975;28;20035;-65
2021/05/16 01:07:45;;;;;;;13.23;8.20;;;9.60;91.30;;;;;;5006422;28;20044;-65
2021/05/16 01:10:11;;;;;;;11.38;8.18;;;9.60;91.30;;;;;;5006965;28;20030;-66
2021/05/16 01:12:44;;;;;;;13.20;9.35;;;9.60;91.30;;;;;;4992446;28;20569;-66
2021/05/16 01:15:16;;;;;;;12.73;8.73;;;9.60;91.30;;;;;;5006491;28;20038;-69
2021/05/16 01:17:42;;;;;;;13.02;7.88;;;9.60;91.30;;;;;;5006605;28;20038;-75
2021/05/16 01:20:11;;;;;;;10.93;7.70;;;9.60;91.20;;;;;;5011408;28;20121;-66
2021/05/16 01:22:43;;;;;;;11.75;8.50;;;9.50;91.10;;;;;;4991263;28;20045;-66
2021/05/16 01:25:09;;;;;;;12.05;8.07;;;9.50;91.10;;;;;;5006486;28;20410;-66
2021/05/16 01:27:36;;;;;;;11.52;8.32;;;9.40;91.20;;;;;;5005645;28;20042;-66
2021/05/16 01:30:04;;;;;;;12.02;9.32;;;9.30;91.20;;;;;;4991943;28;20044;-66
2021/05/16 01:32:30;;;;;;;13.45;8.95;;;9.30;91.20;;;;;;4992103;28;20137;-66
2021/05/16 01:34:56;;;;;;;11.77;8.37;;;9.30;91.30;;;;;;4990141;28;20062;-66
2021/05/16 01:37:23;;;;;;;12.23;8.68;;;9.30;91.50;;;;;;4991014;28;20038;-66
2021/05/16 01:39:49;;;;;;;13.43;8.73;;;9.20;91.50;;;;;;5006589;28;20034;-66
2021/05/16 01:42:17;;;;;;;11.25;8.63;;;9.30;91.60;;;;;;4991605;28;20437;-66
2021/05/16 01:44:43;;;;;;;12.80;8.77;;;9.30;91.60;;;;;;4990751;28;20084;-66
2021/05/16 01:47:09;;;;;;;11.32;8.05;;;9.40;91.60;;;;;;4989701;28;20046;-66
2021/05/16 01:49:43;;;;;;;14.00;9.35;;;9.40;91.60;;;;;;4991685;28;20042;-66
2021/05/16 01:52:11;;;;;;;10.27;7.28;;;9.40;91.60;;;;;;5006481;28;20487;-66
2021/05/16 01:54:37;;;;;;;13.02;8.48;;;9.50;91.60;;;;;;5006221;28;20070;-65
2021/05/16 01:57:05;;;;;;;11.32;8.38;;;9.50;91.50;;;;;;4990530;28;20035;-65
2021/05/16 01:59:32;;;;;;;12.73;9.13;;;9.50;91.50;;;;;;4991464;28;20134;-66
2021/05/16 02:02:00;;;;;;;11.07;8.18;;;9.50;91.50;;;;;;5006718;28;20042;-66
2021/05/16 02:04:31;;;;;;;11.07;8.40;;;9.50;91.60;;;;;;5007800;28;20038;-66
2021/05/16 02:06:58;;;;;;;12.73;8.25;;;9.50;91.50;;;;;;4993460;28;20286;-66
2021/05/16 02:09:28;;;;;;;13.05;8.90;;;9.50;91.50;;;;;;4995324;28;20111;-66
2021/05/16 02:11:56;;;;;;;12.27;9.07;;;9.50;91.60;;;;;;4994308;28;20046;-66
2021/05/16 02:14:24;;;;;;;11.20;8.32;;;9.50;91.60;;;;;;4994763;28;20037;-66
2021/05/16 02:16:50;;;;;;;11.45;8.05;;;9.50;91.60;;;;;;5009159;28;20105;-66
2021/05/16 02:19:16;;;;;;;10.10;7.00;;;9.50;91.60;;;;;;5010301;28;20046;-66
2021/05/16 02:21:43;;;;;;;12.55;8.55;;;9.60;91.60;;;;;;4994829;28;20545;-66
2021/05/16 02:24:08;;;;;;;10.77;7.90;;;9.50;91.60;;;;;;4993246;28;20562;-66
2021/05/16 02:26:58;;;;;;;11.68;7.95;;;9.60;91.60;;;;;;5008335;28;20038;-66
2021/05/16 02:29:24;;;;;;;11.90;7.97;;;9.60;91.60;;;;;;5010375;28;20692;-66
2021/05/16 02:31:50;;;;;;;11.45;8.68;;;9.60;91.60;;;;;;4992684;28;20074;-66
2021/05/16 02:34:16;;;;;;;11.80;8.55;;;9.60;91.70;;;;;;4994050;28;20038;-66
2021/05/16 02:36:42;;;;;;;11.30;8.40;;;9.60;91.70;;;;;;4991927;28;20050;-66
2021/05/16 02:39:08;;;;;;;12.73;9.52;;;9.60;91.70;;;;;;5009744;28;20081;-66
2021/05/16 02:41:37;;;;;;;12.68;8.73;;;9.60;91.70;;;;;;4995170;28;20487;-66
2021/05/16 02:44:03;;;;;;;13.05;9.50;;;9.60;91.70;;;;;;4994264;28;20116;-66
2021/05/16 02:46:29;;;;;;;11.52;7.68;;;9.70;91.70;;;;;;5008661;28;20121;-66
2021/05/16 02:48:55;;;;;;;11.93;8.40;;;9.60;91.70;;;;;;5009865;28;20471;-66
2021/05/16 02:51:21;;;;;;;10.63;7.80;;;9.60;91.60;;;;;;4994518;28;20539;-66
2021/05/16 02:53:48;;;;;;;12.93;7.78;;;9.60;91.60;;;;;;4976663;28;20133;-66
2021/05/16 02:56:15;;;;;;;11.02;8.07;;;9.60;91.60;;;;;;5008678;28;20042;-66
2021/05/16 02:58:42;;;;;;;10.82;8.10;;;9.60;91.60;;;;;;5009332;28;20034;-66
2021/05/16 03:01:11;;;;;;;11.55;8.02;;;9.60;91.60;;;;;;5009715;28;20039;-66
2021/05/16 03:03:41;;;;;;;11.93;8.35;;;9.60;91.60;;;;;;5008501;28;20054;-66
2021/05/16 03:06:09;;;;;;;11.15;7.50;;;9.60;91.70;;;;;;4994258;28;20022;-66
2021/05/16 03:08:36;;;;;;;12.85;8.88;;;9.60;91.80;;;;;;4973873;28;20090;-66
2021/05/16 03:11:03;;;;;;;10.27;7.53;;;9.60;91.80;;;;;;5005947;28;20034;-66
2021/05/16 03:13:28;;;;;;;10.57;7.57;;;9.60;91.70;;;;;;4973094;28;20492;-66
2021/05/16 03:15:55;;;;;;;10.25;7.78;;;9.60;91.80;;;;;;4975890;28;20041;-66
2021/05/16 03:18:25;;;;;;;9.70;6.85;;;9.70;91.80;;;;;;4995955;28;20038;-66
2021/05/16 03:20:51;;;;;;;10.63;7.13;;;9.70;91.80;;;;;;4994904;28;20506;-66
2021/05/16 03:23:18;;;;;;;11.25;7.53;;;9.60;91.70;;;;;;5008297;28;20069;-65
2021/05/16 03:25:45;;;;;;;11.30;7.70;;;9.60;91.70;;;;;;5009341;28;20118;-69
2021/05/16 03:28:11;;;;;;;10.27;6.88;;;9.70;91.70;;;;;;4991481;28;20045;-66
2021/05/16 03:30:37;;;;;;;12.68;7.63;;;9.60;91.70;;;;;;4995739;28;20042;-66
2021/05/16 03:33:02;;;;;;;12.73;7.72;;;9.60;91.70;;;;;;5008369;28;20121;-66
2021/05/16 03:35:28;;;;;;;9.52;6.93;;;9.70;91.80;;;;;;4993891;28;20061;-66
2021/05/16 03:37:54;;;;;;;9.70;7.00;;;9.60;91.80;;;;;;4992669;28;20070;-66
2021/05/16 03:40:20;;;;;;;11.10;6.22;;;9.60;91.70;;;;;;4993826;28;20041;-66
2021/05/16 03:42:46;;;;;;;13.13;7.35;;;9.70;91.70;;;;;;4993798;28;20053;-68
2021/05/16 03:45:13;;;;;;;9.52;6.88;;;9.70;91.80;;;;;;4993563;28;20042;-66
2021/05/16 03:47:39;;;;;;;9.75;7.00;;;9.70;91.70;;;;;;4992575;28;20111;-65
2021/05/16 03:50:08;;;;;;;10.00;7.30;;;9.60;91.80;;;;;;5008784;28;20034;-66
2021/05/16 03:52:34;;;;;;;10.10;6.90;;;9.70;91.90;;;;;;4993465;28;20070;-66
2021/05/16 03:54:59;;;;;;;12.65;6.80;;;9.70;91.90;;;;;;4992859;28;20435;-66
2021/05/16 03:57:25;;;;;;;9.15;6.57;;;9.70;91.90;;;;;;5007677;28;20510;-65
2021/05/16 03:59:51;;;;;;;9.52;6.50;;;9.70;91.90;;;;;;5008021;28;20042;-65
2021/05/16 04:02:17;;;;;;;9.70;6.80;;;9.70;91.90;;;;;;4993476;28;20053;-66
2021/05/16 04:04:43;;;;;;;10.25;6.82;;;9.80;91.90;;;;;;5007973;28;20034;-66
2021/05/16 04:07:09;;;;;;;8.88;6.10;;;9.90;91.90;;;;;;4992176;28;20117;-65
2021/05/16 04:09:35;;;;;;;10.80;6.60;;;9.80;91.80;;;;;;4993523;28;20177;-66
2021/05/16 04:12:00;;;;;;;11.75;6.57;;;9.90;91.90;;;;;;4993008;28;20488;-66
2021/05/16 04:14:27;;;;;;;8.68;5.70;;;9.90;91.90;;;;;;4992701;28;20066;-66
2021/05/16 04:16:53;;;;;;;9.50;6.22;;;10.00;91.90;;;;;;4992015;28;20118;-66
2021/05/16 04:19:19;;;;;;;9.65;6.22;;;10.00;91.80;;;;;;4992945;28;20076;-66
2021/05/16 04:21:45;;;;;;;8.30;6.00;;;10.10;91.70;;;;;;4993282;28;20045;-66
2021/05/16 04:24:11;;;;;;;8.85;6.40;;;10.10;91.60;;;;;;4992044;28;20034;-66
2021/05/16 04:26:37;;;;;;;9.50;5.70;;;10.10;91.70;;;;;;4991557;28;20532;-66
2021/05/16 04:29:03;;;;;;;8.73;5.75;;;10.20;91.70;;;;;;4993052;28;20088;-66
2021/05/16 04:31:29;;;;;;;8.23;5.85;;;10.20;91.80;;;;;;5007736;28;20113;-66
2021/05/16 04:33:55;;;;;;;8.45;5.28;;;10.30;91.80;;;;;;4992391;28;20368;-65
2021/05/16 04:36:21;;;;;;;7.72;5.30;;;10.30;91.70;;;;;;5007210;28;20037;-66
2021/05/16 04:38:48;;;;;;;7.82;5.25;;;10.40;91.80;;;;;;4992586;28;20042;-65
2021/05/16 04:41:14;;;;;;;8.70;5.20;;;10.40;91.60;;;;;;5007900;28;20030;-65
2021/05/16 04:43:41;;;;;;;7.40;4.80;;;10.50;91.50;;;;;;4991660;28;20506;-66
2021/05/16 04:46:07;;;;;;;8.52;5.22;;;10.50;91.60;;;;;;4992166;28;20034;-66
2021/05/16 04:48:32;;;;;;;8.93;4.90;;;10.60;91.60;;;;;;4992383;28;20117;-65
2021/05/16 04:50:58;;;;;;;9.02;4.93;;;10.70;91.70;;;;;;4991012;28;20029;-66
2021/05/16 04:53:27;;;;;;;7.53;4.72;;;10.80;91.60;;;;;;4991903;28;20075;-65
2021/05/16 04:55:54;;;;;;;7.85;4.43;;;10.90;91.50;;;;;;4991952;28;20049;-66
2021/05/16 04:58:19;;;;;;;7.82;4.30;;;11.00;91.40;;;;;;4991513;28;20047;-65
2021/05/16 05:00:45;;;;;;;8.57;4.68;;;11.00;91.40;;;;;;4992566;28;20044;-65
2021/05/16 05:03:11;;;;;;;9.57;4.90;;;11.10;91.40;;;;;;4989988;28;20050;-65
2021/05/16 05:05:36;;;;;;;8.60;4.38;;;11.10;91.40;;;;;;4992509;28;20066;-65
2021/05/16 05:08:02;;;;;;;7.93;4.57;;;11.20;91.30;;;;;;4990916;28;20042;-65
2021/05/16 05:10:28;;;;;;;7.55;4.30;;;11.30;91.20;;;;;;4992388;28;20045;-66
2021/05/16 05:12:53;;;;;;;6.45;4.15;;;11.30;91.20;;;;;;4991752;28;20038;-65
2021/05/16 05:15:19;;;;;;;7.05;4.13;;;11.40;91.10;;;;;;4991707;28;20045;-65
2021/05/16 05:17:45;;;;;;;7.85;4.18;;;11.50;91.10;;;;;;4991285;28;20049;-65
2021/05/16 05:20:11;;;;;;;8.82;4.13;;;11.60;91.10;;;;;;4992390;28;20041;-65
2021/05/16 05:22:37;;;;;;;6.45;4.00;;;11.70;91.10;;;;;;4991692;28;20065;-65
2021/05/16 05:25:03;;;;;;;6.78;4.22;;;11.80;90.90;;;;;;4991404;28;20034;-65
2021/05/16 05:27:29;;;;;;;7.03;4.35;;;11.90;90.90;;;;;;5005375;28;20053;-65
2021/05/16 05:29:55;;;;;;;8.07;4.18;;;12.00;90.70;;;;;;4992069;28;20038;-65
2021/05/16 05:32:20;;;;;;;6.72;3.92;;;12.00;90.50;;;;;;4991291;28;20035;-65
2021/05/16 05:34:46;;;;;;;6.63;3.83;;;12.00;90.20;;;;;;4990888;28;20438;-65
2021/05/16 05:37:12;;;;;;;6.53;3.80;;;12.00;90.30;;;;;;4990527;28;20384;-65
2021/05/16 05:39:37;;;;;;;7.10;4.13;;;12.10;90.20;;;;;;5005533;28;20038;-65
2021/05/16 05:42:03;;;;;;;6.65;3.80;;;12.10;90.00;;;;;;4991628;28;20034;-65
2021/05/16 05:44:29;;;;;;;9.23;4.10;;;12.10;90.00;;;;;;4991127;28;20038;-65
2021/05/16 05:46:55;;;;;;;6.20;3.75;;;12.10;90.00;;;;;;4989826;28;20088;-65
2021/05/16 05:49:22;;;;;;;7.60;3.85;;;12.00;89.60;;;;;;4992003;28;20038;-65
2021/05/16 05:51:48;;;;;;;8.23;4.10;;;12.00;89.40;;;;;;4990064;28;20519;-65
2021/05/16 05:54:14;;;;;;;8.00;4.15;;;12.00;89.70;;;;;;4990679;28;20042;-65
2021/05/16 05:56:40;;;;;;;7.20;4.00;;;12.00;89.70;;;;;;4990733;28;20045;-65
2021/05/16 05:59:05;;;;;;;8.02;4.22;;;12.00;89.80;;;;;;4991395;28;20046;-65
2021/05/16 06:01:31;;;;;;;7.20;4.45;;;12.10;90.00;;;;;;5006654;28;20042;-65
2021/05/16 06:03:57;;;;;;;9.02;4.07;;;12.20;90.00;;;;;;4991020;28;20066;-65
2021/05/16 06:06:22;;;;;;;7.10;4.28;;;12.30;89.80;;;;;;4990153;28;20038;-65
2021/05/16 06:08:48;;;;;;;6.97;4.10;;;12.40;90.00;;;;;;4991676;28;20054;-65
2021/05/16 06:11:13;;;;;;;7.63;4.18;;;12.60;90.30;;;;;;4991672;28;20030;-66
2021/05/16 06:13:39;;;;;;;7.15;3.80;;;13.00;90.30;;;;;;4990352;28;20046;-66
2021/05/16 06:16:05;;;;;;;6.22;3.85;;;13.30;90.10;;;;;;4991231;28;20022;-65
2021/05/16 06:18:30;;;;;;;6.88;4.30;;;13.50;89.60;;;;;;5005246;28;20392;-67
2021/05/16 06:20:56;;;;;;;7.88;4.57;;;13.60;87.80;;;;;;4991569;28;20053;-66
2021/05/16 06:23:32;;;;;;;8.18;4.45;;;13.50;86.60;;;;;;4990593;28;20133;-66
2021/05/16 06:25:57;;;;;;;8.00;4.97;;;13.40;86.40;;;;;;4990990;28;20054;-66
2021/05/16 06:28:23;;;;;;;7.63;4.50;;;13.20;85.90;;;;;;4990297;28;20487;-66
2021/05/16 06:30:49;;;;;;;7.15;4.40;;;12.90;85.60;;;;;;4991018;28;20092;-65
2021/05/16 06:33:14;;;;;;;9.85;5.10;;;12.70;85.90;;;;;;4990907;28;20038;-64
2021/05/16 06:35:40;;;;;;;9.73;5.07;;;12.60;86.50;;;;;;4991514;28;20042;-64
2021/05/16 06:38:05;;;;;;;7.85;5.45;;;12.50;86.60;;;;;;4990211;28;20399;-64
2021/05/16 06:40:32;;;;;;;9.07;5.57;;;12.40;86.80;;;;;;4991351;28;20050;-64
2021/05/16 06:43:00;;;;;;;8.90;5.90;;;12.40;87.10;;;;;;4990498;28;20050;-64
2021/05/16 06:45:26;;;;;;;10.60;6.18;;;12.40;87.70;;;;;;4990909;28;20041;-64
2021/05/16 06:47:51;;;;;;;8.70;5.70;;;12.50;88.20;;;;;;4990101;28;20043;-64
2021/05/16 06:50:19;;;;;;;8.52;5.82;;;12.70;88.70;;;;;;4992766;28;20026;-64
2021/05/16 06:52:44;;;;;;;8.02;5.20;;;13.00;89.70;;;;;;4994694;28;20065;-64
2021/05/16 06:55:11;;;;;;;7.53;5.10;;;13.60;90.20;;;;;;5009194;28;20123;-65
2021/05/16 06:57:39;;;;;;;7.68;4.28;;;14.30;90.80;;;;;;4993353;28;20035;-65
2021/05/16 07:00:05;;;;;;;6.55;4.15;;;16.20;93.40;;;;;;4994179;28;20491;-64
2021/05/16 07:02:31;;;;;;;5.85;3.80;;;19.10;93.10;;;;;;4994006;28;20049;-65
2021/05/16 07:04:57;;;;;;;5.65;3.67;;;21.70;90.30;;;;;;4993761;28;20117;-64
2021/05/16 07:07:23;;;;;;;6.88;3.63;;;22.60;80.30;;;;;;4993386;28;20161;-65
2021/05/16 07:09:49;;;;;;;8.38;4.57;;;22.10;74.20;;;;;;4993805;28;20042;-65
2021/05/16 07:12:15;;;;;;;8.25;5.07;;;21.00;70.90;;;;;;4992876;28;20035;-65
2021/05/16 07:14:40;;;;;;;6.70;5.15;;;20.10;70.80;;;;;;4993274;28;20491;-66
2021/05/16 07:17:06;;;;;;;7.50;5.18;;;19.60;70.50;;;;;;5003978;28;20027;-64
2021/05/16 07:19:32;;;;;;;8.57;5.53;;;19.10;69.90;;;;;;4974909;28;20045;-65
2021/05/16 07:21:57;;;;;;;8.07;5.10;;;18.80;70.80;;;;;;4974330;28;20047;-66
2021/05/16 07:24:23;;;;;;;7.50;5.60;;;19.00;71.80;;;;;;4974049;28;20122;-65
2021/05/16 07:26:49;;;;;;;7.10;5.28;;;19.00;70.00;;;;;;4973759;28;20035;-65
2021/05/16 07:29:14;;;;;;;7.63;5.68;;;18.70;68.40;;;;;;4973069;28;20133;-65
2021/05/16 07:31:40;;;;;;;8.35;5.32;;;18.20;67.70;;;;;;4976483;28;20035;-65
2021/05/16 07:34:06;;;;;;;7.57;5.40;;;17.70;68.00;;;;;;4991587;28;20057;-66
2021/05/16 07:36:32;;;;;;;8.30;5.28;;;17.20;68.60;;;;;;4993166;28;20038;-64
2021/05/16 07:38:57;;;;;;;9.18;5.63;;;16.80;68.70;;;;;;4993858;28;20057;-67
2021/05/16 07:41:23;;;;;;;9.05;5.40;;;16.40;68.90;;;;;;4975660;28;20034;-66
2021/05/16 07:43:49;;;;;;;8.13;5.88;;;16.00;69.40;;;;;;4993362;28;20077;-67
2021/05/16 07:46:14;;;;;;;8.60;5.82;;;15.70;70.10;;;;;;4992802;28;20037;-67
2021/05/16 07:48:40;;;;;;;8.15;5.45;;;15.60;71.20;;;;;;4992169;28;20117;-67
2021/05/16 07:51:06;;;;;;;7.90;5.63;;;15.50;71.70;;;;;;4993767;28;20030;-66
2021/05/16 07:53:32;;;;;;;8.38;5.93;;;15.50;71.80;;;;;;4992629;28;20097;-67
2021/05/16 07:55:58;;;;;;;8.82;5.75;;;15.30;71.50;;;;;;4993603;28;20426;-67
2021/05/16 07:58:24;;;;;;;7.78;5.57;;;15.10;71.60;;;;;;4992884;28;20546;-66
2021/05/16 08:00:50;;;;;;;9.75;6.45;;;14.90;71.80;;;;;;4992041;28;20069;-66
2021/05/16 08:03:15;;;;;;;10.55;7.00;;;14.60;72.40;;;;;;4992388;28;20038;-65
2021/05/16 08:05:41;;;;;;;10.05;7.20;;;14.40;73.20;;;;;;4993427;28;20045;-65
2021/05/16 08:08:07;;;;;;;8.65;6.53;;;14.40;74.40;;;;;;4991220;28;20038;-66
2021/05/16 08:10:33;;;;;;;9.48;7.18;;;14.50;75.20;;;;;;4993246;28;20557;-67
2021/05/16 08:12:58;;;;;;;9.45;6.32;;;14.80;76.60;;;;;;4992098;28;20415;-66
2021/05/16 08:15:25;;;;;;;10.13;5.45;;;15.90;80.40;;;;;;4993179;28;20125;-64
2021/05/16 08:17:52;;;;;;;6.50;4.38;;;17.40;79.80;;;;;;4992021;28;20088;-64
2021/05/16 08:20:19;;;;;;;7.45;4.10;;;19.50;80.60;;;;;;4992690;28;20050;-65
2021/05/16 08:22:45;;;;;;;6.25;3.92;;;21.90;77.10;;;;;;4992732;28;20046;-65
2021/05/16 08:25:12;;;;;;;6.65;4.65;;;22.90;70.20;;;;;;5007128;28;20100;-59
2021/05/16 08:27:42;;;;;;;7.45;4.20;;;22.70;64.70;;;;;;4989828;28;20618;-59
2021/05/16 08:30:09;;;;;;;7.77;4.77;;;21.80;61.20;;;;;;5006452;28;20038;-68
2021/05/16 08:32:34;;;;;;;7.68;5.10;;;20.70;60.30;;;;;;4992819;28;20055;-67
2021/05/16 08:35:00;;;;;;;8.25;5.03;;;19.90;61.20;;;;;;4992059;28;20045;-68
2021/05/16 08:37:26;;;;;;;8.52;5.43;;;19.40;61.80;;;;;;4991339;28;20088;-67
2021/05/16 08:39:52;;;;;;;8.13;5.70;;;19.10;62.00;;;;;;4992440;28;20042;-67
2021/05/16 08:42:18;;;;;;;7.75;5.47;;;18.80;62.40;;;;;;4991367;28;20065;-67
2021/05/16 08:44:44;;;;;;;8.57;5.72;;;18.60;62.80;;;;;;4991570;28;20046;-67
2021/05/16 08:47:10;;;;;;;9.05;6.10;;;18.50;62.30;;;;;;4991783;28;20065;-68
2021/05/16 08:49:36;;;;;;;9.13;6.07;;;18.40;62.70;;;;;;4992307;28;20089;-66
2021/05/16 08:52:02;;;;;;;8.25;5.72;;;18.40;63.30;;;;;;5007666;28;20510;-68
2021/05/16 08:54:28;;;;;;;7.93;5.40;;;19.30;65.70;;;;;;4991935;28;20053;-67
2021/05/16 08:56:55;;;;;;;8.07;4.70;;;20.60;64.90;;;;;;4990947;28;20050;-69
2021/05/16 08:59:23;;;;;;;6.60;3.90;;;22.70;65.10;;;;;;4991159;28;20046;-68
2021/05/16 09:01:54;;;;;;;7.80;4.53;;;24.80;62.10;;;;;;4991925;28;20065;-67
2021/05/16 09:04:32;;;;;;;6.78;3.70;;;25.80;56.10;;;;;;4991600;28;20068;-67
2021/05/16 09:06:58;;;;;;;6.50;3.85;;;25.50;52.10;;;;;;4990511;28;20030;-67
2021/05/16 09:09:30;;;;;;;6.57;4.22;;;24.50;49.20;;;;;;5006883;28;20510;-68
2021/05/16 09:11:57;;;;;;;5.53;3.30;;;23.60;50.30;;;;;;4992203;28;20061;-68
2021/05/16 09:15:01;;;;;;;6.22;2.92;;;23.50;52.50;;;;;;4990891;28;20043;-68
2021/05/16 09:17:34;;;;;;;7.13;4.05;;;24.60;54.40;;;;;;4969084;28;20046;-67
2021/05/16 09:20:06;;;;;;;6.63;3.22;;;24.80;51.60;;;;;;4989050;28;20553;-68
2021/05/16 09:22:37;;;;;;;5.60;3.25;;;24.30;50.60;;;;;;4987608;28;20046;-69
2021/05/16 09:25:22;;;;;;;7.25;3.35;;;24.30;51.00;;;;;;4990874;28;20034;-68
2021/05/16 09:27:50;;;;;;;7.18;3.60;;;24.20;49.70;;;;;;4986933;28;20109;-67
2021/05/16 09:30:19;;;;;;;6.07;3.60;;;23.60;49.20;;;;;;4991687;28;20038;-67
2021/05/16 09:32:59;;;;;;;6.55;3.42;;;22.80;49.00;;;;;;4991444;28;20034;-67
2021/05/16 09:35:26;;;;;;;;;;;22.00;49.50;;;;;;4992491;28;20042;-67
2021/05/16 09:38:02;;;;;;;6.60;3.45;;;21.20;49.20;;;;;;4989327;28;20295;-67
2021/05/16 09:40:31;;;;;;;7.28;3.53;;;20.20;49.90;;;;;;4991476;28;20038;-68
2021/05/16 09:43:12;;;;;;;5.35;2.90;;;19.40;50.40;;;;;;5005643;28;20066;-68
2021/05/16 09:45:49;;;;;;;;;;;18.60;51.70;;;;;;4992144;28;20053;-68
2021/05/16 09:48:31;;;;;;;2.67;1.30;;;17.90;52.00;;;;;;4990493;28;19997;-67
2021/05/16 09:51:07;;;;;;;3.55;1.60;;;17.20;53.10;;;;;;4991411;28;20042;-69
2021/05/16 09:53:33;;;;;;;5.53;1.80;;;16.60;54.40;;;;;;4990463;28;20047;-69
2021/05/16 09:56:25;;;;;;;4.22;1.80;;;16.30;55.80;;;;;;4989935;28;20045;-69
2021/05/16 09:58:53;;;;;;;3.47;1.70;;;16.00;57.10;;;;;;4986631;28;20031;-69
2021/05/16 10:01:20;;;;;;;2.55;1.60;;;15.80;58.20;;;;;;4994602;28;20034;-69
2021/05/16 10:03:46;;;;;;;3.58;1.77;;;16.00;59.80;;;;;;4990017;28;20039;-68
2021/05/16 10:06:13;;;;;;;3.78;1.58;;;16.50;61.50;;;;;;4991400;28;20034;-67
2021/05/16 10:08:39;;;;;;;3.90;1.40;;;17.80;63.20;;;;;;4989335;28;20508;-67
2021/05/16 10:11:05;;;;;;;1.95;1.10;;;19.70;63.30;;;;;;4991194;28;20045;-67
2021/05/16 10:13:36;;;;;;;2.97;1.10;;;21.50;61.80;;;;;;4990785;28;20035;-67
2021/05/16 10:16:03;;;;;;;3.70;1.10;;;23.70;59.70;;;;;;5005946;28;20191;-67
2021/05/16 10:18:31;;;;;;;3.83;1.20;;;25.70;56.10;;;;;;4991087;28;20044;-67
2021/05/16 10:20:57;;;;;;;3.55;1.38;;;26.70;52.30;;;;;;5006611;28;20039;-67
2021/05/16 10:23:35;;;;;;;2.85;1.20;;;29.30;52.40;;;;;;4990161;28;20050;-67
2021/05/16 10:26:22;;;;;;;5.07;1.80;;;32.30;49.00;;;;;;4993464;28;20070;-67
2021/05/16 10:28:59;;;;;;;3.67;1.65;;;35.10;44.40;;;;;;4993446;28;20100;-67
2021/05/16 10:31:47;;;;;;;5.00;2.40;;;36.40;40.30;;;;;;4993978;28;20391;-68
2021/05/16 10:34:28;;;;;;;4.90;2.00;;;37.20;35.90;;;;;;4991295;28;20038;-68
2021/05/16 10:37:03;;;;;;;6.30;2.67;;;38.50;35.10;;;;;;4992405;28;20049;-68
2021/05/16 10:39:38;;;;;;;6.82;3.00;;;39.90;33.50;;;;;;4993462;28;20069;-66
2021/05/16 10:42:14;;;;;;;6.28;2.45;;;40.70;30.90;;;;;;4994155;28;20042;-67
2021/05/16 10:45:05;;;;;;;5.18;2.40;;;39.70;29.50;;;;;;4994404;28;20042;-66
2021/05/16 10:50:23;;;;;;;5.57;2.30;;;39.90;28.90;;;;;;4993929;28;20034;-66
2021/05/16 10:53:17;;;;;;;5.90;2.50;;;40.50;28.20;;;;;;4989734;28;20204;-65
2021/05/16 10:55:45;;;;;;;5.53;2.58;;;40.80;27.40;;;;;;4996298;28;20582;-66
2021/05/16 10:58:36;;;;;;;4.70;2.25;;;41.30;27.30;;;;;;4998160;28;20042;-66
2021/05/16 11:01:07;;;;;;;8.25;2.70;;;41.30;25.80;;;;;;4992221;28;20117;-66
2021/05/16 11:03:50;;;;;;;7.35;2.80;;;38.60;24.80;;;;;;4990487;28;20641;-67
2021/05/16 11:06:18;;;;;;;6.07;2.55;;;34.80;25.50;;;;;;4993394;28;20609;-68
2021/05/16 11:08:49;;;;;;;7.70;3.03;;;31.40;26.70;;;;;;4993585;28;20096;-69
2021/05/16 11:11:37;;;;;;;5.00;2.10;;;28.80;28.10;;;;;;4993433;28;20446;-67
2021/05/16 11:14:17;;;;;;;6.65;1.67;;;26.00;30.20;;;;;;4993761;28;20487;-69
2021/05/16 11:16:52;;;;;;;5.87;1.67;;;23.50;32.30;;;;;;4991451;28;20045;-70
2021/05/16 11:19:20;;;;;;;6.43;2.10;;;21.20;35.60;;;;;;4991466;28;20081;-68
2021/05/16 11:21:46;;;;;;;6.40;2.70;;;19.50;39.00;;;;;;4993083;28;20046;-68
2021/05/16 11:24:11;;;;;;;5.60;2.33;;;18.30;41.80;;;;;;4992997;28;20041;-67
2021/05/16 11:26:37;;;;;;;10.65;2.88;;;17.70;44.00;;;;;;4992278;28;20042;-67
2021/05/16 11:29:03;;;;;;;9.57;3.30;;;17.40;46.00;;;;;;4993930;28;20031;-68
2021/05/16 11:31:33;;;;;;;9.02;3.17;;;17.20;47.30;;;;;;4993575;28;20054;-69
2021/05/16 11:34:02;;;;;;;6.60;2.70;;;17.30;48.00;;;;;;4991798;28;20034;-69
2021/05/16 11:36:30;;;;;;;7.07;2.47;;;17.20;48.70;;;;;;4990251;28;20066;-68
2021/05/16 11:38:58;;;;;;;7.30;2.63;;;17.30;49.70;;;;;;4990634;28;20062;-69
2021/05/16 11:41:35;;;;;;;6.05;3.03;;;17.40;50.60;;;;;;4993295;28;20118;-69
2021/05/16 11:44:06;;;;;;;5.38;2.72;;;17.80;51.90;;;;;;4992081;28;20852;-65
2021/05/16 11:46:33;;;;;;;7.38;2.92;;;18.50;52.70;;;;;;4990486;28;20491;-68
2021/05/16 11:49:03;;;;;;;6.25;2.85;;;19.30;52.40;;;;;;4992170;28;20454;-66
2021/05/16 11:51:29;;;;;;;7.28;3.42;;;20.20;51.40;;;;;;4993371;28;20568;-67
2021/05/16 11:53:56;;;;;;;7.60;3.47;;;20.60;49.20;;;;;;4992428;28;20049;-67
2021/05/16 11:56:26;;;;;;;7.07;3.92;;;20.70;48.70;;;;;;4992631;28;20034;-67
2021/05/16 11:59:00;;;;;;;6.88;3.72;;;20.60;48.50;;;;;;4992039;28;20061;-67
2021/05/16 12:01:38;;;;;;;8.20;4.18;;;20.50;48.90;;;;;;4992341;28;20038;-67
2021/05/16 12:04:12;;;;;;;9.27;4.60;;;20.60;49.40;;;;;;5009328;28;20034;-68
2021/05/16 12:06:57;;;;;;;8.02;4.45;;;21.10;50.90;;;;;;4989732;28;20033;-67
2021/05/16 12:09:25;;;;;;;8.55;4.30;;;22.10;50.60;;;;;;4992799;28;20053;-68
2021/05/16 12:11:55;;;;;;;8.07;3.90;;;22.80;49.70;;;;;;5007301;28;20058;-68
2021/05/16 12:14:22;;;;;;;8.70;4.05;;;23.40;48.50;;;;;;4996965;28;20598;-69
2021/05/16 12:16:59;;;;;;;9.07;3.83;;;23.50;46.70;;;;;;4998734;28;20041;-69
2021/05/16 12:19:34;;;;;;;8.93;4.07;;;23.20;46.50;;;;;;4994752;28;20101;-69
2021/05/16 12:22:02;;;;;;;7.53;3.70;;;22.80;46.30;;;;;;4991887;28;20125;-68
2021/05/16 12:24:30;;;;;;;7.00;3.90;;;23.00;48.60;;;;;;4994298;28;20030;-68
2021/05/16 12:26:57;;;;;;;7.47;3.50;;;23.30;47.90;;;;;;4992813;28;20030;-68
2021/05/16 12:29:23;;;;;;;6.95;3.20;;;23.30;47.20;;;;;;5000113;28;20056;-69
2021/05/16 12:31:50;;;;;;;6.35;3.10;;;23.40;47.00;;;;;;4993198;28;20053;-67
2021/05/16 12:34:16;;;;;;;6.53;3.05;;;24.00;46.80;;;;;;4991522;28;20129;-68
2021/05/16 12:36:50;;;;;;;5.45;2.40;;;24.70;45.90;;;;;;4991769;28;20125;-68
2021/05/16 12:39:39;;;;;;;5.22;2.00;;;25.00;44.80;;;;;;4991343;28;20062;-67
2021/05/16 12:42:26;;;;;;;4.15;1.77;;;25.00;44.50;;;;;;4990109;28;20041;-68
2021/05/16 12:44:53;;;;;;;3.78;1.60;;;24.80;43.30;;;;;;4987972;28;20045;-67
2021/05/16 12:47:26;;;;;;;5.45;1.70;;;24.90;42.90;;;;;;4991441;28;20109;-68
2021/05/16 12:50:07;;;;;;;6.05;2.17;;;24.70;42.40;;;;;;4990470;28;20442;-68
2021/05/16 12:52:33;;;;;;;4.93;1.75;;;24.10;41.80;;;;;;4991035;28;20380;-68
2021/05/16 12:55:00;;;;;;;5.07;1.80;;;23.20;41.50;;;;;;4989195;28;20030;-68
2021/05/16 13:00:05;;;;;;;7.00;2.50;;;22.00;43.90;;;;;;4989567;28;20030;-68